createdAt,value
2018-11-23T00:00:46.718Z,869.28
2018-11-23T00:01:46.359Z,869.31
2018-11-23T00:03:39.183Z,869.31
2018-11-23T00:04:38.933Z,869.25
2018-11-23T00:06:31.297Z,869.28
2018-11-23T00:07:31.254Z,869.30
2018-11-23T00:09:24.824Z,869.29
2018-11-23T00:10:25.007Z,869.31
2018-11-23T00:12:17.010Z,869.34
2018-11-23T00:13:17.333Z,869.27
2018-11-23T00:15:10.571Z,869.24
2018-11-23T00:16:10.654Z,869.20
2018-11-23T00:18:04.044Z,869.21
2018-11-23T00:19:04.015Z,869.23
2018-11-23T00:20:57.841Z,869.24
2018-11-23T00:21:57.656Z,869.29
2018-11-23T00:23:49.989Z,869.30
2018-11-23T00:24:50.277Z,869.32
2018-11-23T00:26:43.628Z,869.41
2018-11-23T00:27:43.301Z,869.42
2018-11-23T00:29:37.243Z,869.42
2018-11-23T00:30:36.683Z,869.47
2018-11-23T00:32:29.293Z,869.51
2018-11-23T00:33:29.350Z,869.58
2018-11-23T00:35:21.674Z,869.54
2018-11-23T00:36:21.677Z,869.54
2018-11-23T00:38:15.341Z,869.49
2018-11-23T00:39:15.365Z,869.49
2018-11-23T00:41:07.725Z,869.46
2018-11-23T00:42:08.037Z,869.44
2018-11-23T00:44:01.652Z,869.43
2018-11-23T00:45:01.084Z,869.34
2018-11-23T00:46:53.400Z,869.37
2018-11-23T00:47:53.395Z,869.37
2018-11-23T00:49:46.305Z,869.41
2018-11-23T00:50:45.746Z,869.39
2018-11-23T00:52:38.115Z,869.43
2018-11-23T00:53:38.058Z,869.40
2018-11-23T00:55:31.966Z,869.44
2018-11-23T00:56:31.440Z,869.47
2018-11-23T00:58:23.784Z,869.50
2018-11-23T00:59:23.768Z,869.51
2018-11-23T01:01:17.259Z,869.56
2018-11-23T01:02:16.632Z,869.57
2018-11-23T01:04:09.082Z,869.63
2018-11-23T01:05:08.944Z,869.65
2018-11-23T01:07:06.547Z,869.63
2018-11-23T01:08:02.677Z,869.66
2018-11-23T01:09:54.669Z,869.66
2018-11-23T01:10:54.620Z,869.67
2018-11-23T01:12:47.223Z,869.61
2018-11-23T01:13:47.296Z,869.60
2018-11-23T01:15:39.356Z,869.60
2018-11-23T01:16:39.313Z,869.56
2018-11-23T01:18:33.286Z,869.56
2018-11-23T01:19:32.675Z,869.55
2018-11-23T01:21:26.644Z,869.56
2018-11-23T01:22:26.013Z,869.55
2018-11-23T01:25:49.750Z,869.48
2018-11-23T01:26:49.709Z,869.45
2018-11-23T01:28:42.075Z,869.41
2018-11-23T01:29:41.710Z,869.37
2018-11-23T01:31:35.303Z,869.41
2018-11-23T01:32:35.088Z,869.42
2018-11-23T01:34:28.035Z,869.48
2018-11-23T01:35:27.777Z,869.46
2018-11-23T01:37:21.316Z,869.47
2018-11-23T01:38:20.777Z,869.45
2018-11-23T01:40:12.650Z,869.48
2018-11-23T01:41:12.601Z,869.48
2018-11-23T01:43:06.163Z,869.42
2018-11-23T01:44:05.983Z,869.47
2018-11-23T01:45:58.921Z,869.49
2018-11-23T01:46:58.359Z,869.49
2018-11-23T01:48:51.233Z,869.47
2018-11-23T01:49:51.036Z,869.47
2018-11-23T01:51:44.013Z,869.46
2018-11-23T01:52:44.001Z,869.49
2018-11-23T01:54:37.913Z,869.56
2018-11-23T01:55:37.382Z,869.55
2018-11-23T01:57:29.700Z,869.53
2018-11-23T01:58:29.719Z,869.49
2018-11-23T02:00:21.873Z,869.47
2018-11-23T02:01:21.594Z,869.51
2018-11-23T02:03:14.964Z,869.58
2018-11-23T02:04:14.963Z,869.62
2018-11-23T02:06:08.521Z,869.59
2018-11-23T02:07:08.324Z,869.63
2018-11-23T02:09:02.098Z,869.61
2018-11-23T02:10:02.017Z,869.60
2018-11-23T02:11:55.790Z,869.61
2018-11-23T02:12:55.010Z,869.64
2018-11-23T02:14:47.416Z,869.66
2018-11-23T02:15:47.338Z,869.71
2018-11-23T02:17:41.270Z,869.64
2018-11-23T02:18:40.715Z,869.67
2018-11-23T02:20:33.065Z,869.63
2018-11-23T02:21:33.385Z,869.59
2018-11-23T02:23:26.934Z,869.56
2018-11-23T02:24:26.418Z,869.57
2018-11-23T02:26:18.762Z,869.50
2018-11-23T02:27:19.079Z,869.47
2018-11-23T02:29:11.871Z,869.49
2018-11-23T02:30:11.448Z,869.49
2018-11-23T02:32:03.495Z,869.53
2018-11-23T02:33:03.468Z,869.51
2018-11-23T02:34:57.044Z,869.57
2018-11-23T02:35:56.822Z,869.59
2018-11-23T02:37:50.507Z,869.58
2018-11-23T02:38:50.172Z,869.54
2018-11-23T02:40:44.049Z,869.56
2018-11-23T02:41:43.478Z,869.52
2018-11-23T02:43:35.834Z,869.58
2018-11-23T02:44:36.144Z,869.57
2018-11-23T02:46:28.716Z,869.56
2018-11-23T02:47:28.194Z,869.55
2018-11-23T02:49:20.856Z,869.56
2018-11-23T02:50:20.473Z,869.56
2018-11-23T02:52:14.165Z,869.58
2018-11-23T02:53:13.828Z,869.53
2018-11-23T02:55:07.178Z,869.54
2018-11-23T02:56:07.532Z,869.54
2018-11-23T02:57:59.815Z,869.50
2018-11-23T02:58:59.539Z,869.43
2018-11-23T03:00:51.946Z,869.39
2018-11-23T03:01:51.869Z,869.34
2018-11-23T03:03:45.507Z,869.31
2018-11-23T03:04:45.213Z,869.33
2018-11-23T03:06:38.140Z,869.29
2018-11-23T03:07:37.061Z,869.27
2018-11-23T03:09:50.420Z,869.25
2018-11-23T03:10:29.394Z,869.25
2018-11-23T03:12:22.088Z,869.26
2018-11-23T03:13:21.727Z,869.27
2018-11-23T03:15:14.309Z,869.24
2018-11-23T03:16:14.416Z,869.26
2018-11-23T03:18:06.452Z,869.24
2018-11-23T03:19:06.735Z,869.22
2018-11-23T03:20:58.981Z,869.17
2018-11-23T03:21:58.782Z,869.19
2018-11-23T03:23:52.130Z,869.14
2018-11-23T03:24:52.151Z,869.12
2018-11-23T03:26:44.713Z,869.11
2018-11-23T03:27:44.483Z,869.06
2018-11-23T03:29:36.838Z,869.04
2018-11-23T03:30:36.805Z,869.03
2018-11-23T03:32:29.697Z,869.08
2018-11-23T03:33:29.147Z,869.06
2018-11-23T03:35:21.851Z,869.05
2018-11-23T03:36:21.482Z,869.07
2018-11-23T03:38:15.061Z,869.02
2018-11-23T03:39:14.854Z,869.04
2018-11-23T03:41:08.530Z,869.05
2018-11-23T03:42:08.157Z,869.03
2018-11-23T03:44:01.766Z,869.08
2018-11-23T03:45:01.512Z,869.00
2018-11-23T03:46:54.203Z,868.92
2018-11-23T03:47:53.873Z,868.89
2018-11-23T03:49:46.777Z,868.86
2018-11-23T03:50:46.211Z,868.86
2018-11-23T03:52:38.566Z,868.87
2018-11-23T03:53:38.518Z,868.87
2018-11-23T03:55:31.122Z,868.85
2018-11-23T03:56:30.891Z,868.83
2018-11-23T03:58:24.558Z,868.83
2018-11-23T03:59:24.211Z,868.80
2018-11-23T04:01:17.772Z,868.72
2018-11-23T04:02:17.942Z,868.73
2018-11-23T04:04:11.367Z,868.64
2018-11-23T04:05:10.892Z,868.63
2018-11-23T04:07:04.040Z,868.61
2018-11-23T04:08:03.650Z,868.63
2018-11-23T04:09:57.073Z,868.60
2018-11-23T04:10:56.948Z,868.58
2018-11-23T04:12:49.513Z,868.50
2018-11-23T04:13:49.635Z,868.47
2018-11-23T04:15:42.657Z,868.46
2018-11-23T04:16:42.653Z,868.45
2018-11-23T04:18:36.783Z,868.50
2018-11-23T04:19:36.457Z,868.44
2018-11-23T04:21:30.416Z,868.41
2018-11-23T04:22:30.149Z,868.42
2018-11-23T04:24:23.832Z,868.33
2018-11-23T04:25:23.529Z,868.32
2018-11-23T04:27:17.766Z,868.32
2018-11-23T04:28:16.829Z,868.27
2018-11-23T04:30:10.402Z,868.22
2018-11-23T04:31:10.514Z,868.21
2018-11-23T04:33:02.544Z,868.17
2018-11-23T04:34:02.496Z,868.15
2018-11-23T04:35:55.636Z,868.13
2018-11-23T04:36:55.063Z,868.14
2018-11-23T04:38:47.597Z,868.07
2018-11-23T04:39:47.559Z,868.02
2018-11-23T04:41:46.261Z,868.02
2018-11-23T04:42:39.926Z,868.01
2018-11-23T04:44:33.887Z,868.01
2018-11-23T04:45:33.241Z,868.05
2018-11-23T04:47:27.561Z,868.04
2018-11-23T04:48:26.949Z,868.02
2018-11-23T04:50:19.054Z,868.04
2018-11-23T04:51:18.949Z,868.02
2018-11-23T04:53:11.477Z,868.04
2018-11-23T04:54:11.618Z,868.04
2018-11-23T04:56:03.603Z,868.04
2018-11-23T04:57:03.915Z,868.03
2018-11-23T04:58:56.039Z,868.06
2018-11-23T04:59:55.488Z,868.06
2018-11-23T05:01:47.781Z,868.06
2018-11-23T05:02:47.792Z,868.04
2018-11-23T05:04:40.963Z,868.04
2018-11-23T05:05:40.127Z,867.99
2018-11-23T05:07:32.445Z,867.96
2018-11-23T05:08:32.760Z,868.00
2018-11-23T05:10:24.971Z,868.00
2018-11-23T05:11:25.130Z,867.97
2018-11-23T05:13:17.692Z,868.03
2018-11-23T05:14:17.105Z,868.01
2018-11-23T05:16:09.644Z,868.05
2018-11-23T05:17:09.463Z,868.03
2018-11-23T05:19:01.876Z,868.05
2018-11-23T05:20:02.099Z,868.01
2018-11-23T05:21:54.338Z,867.97
2018-11-23T05:22:54.131Z,867.94
2018-11-23T05:24:46.464Z,867.94
2018-11-23T05:25:46.449Z,867.92
2018-11-23T05:27:38.993Z,867.95
2018-11-23T05:28:38.752Z,867.94
2018-11-23T05:30:31.681Z,867.90
2018-11-23T05:31:31.095Z,867.86
2018-11-23T05:33:23.652Z,867.85
2018-11-23T05:34:23.452Z,867.87
2018-11-23T05:36:16.358Z,867.88
2018-11-23T05:37:15.805Z,867.85
2018-11-23T05:40:39.380Z,867.82
2018-11-23T05:41:39.517Z,867.77
2018-11-23T05:43:31.465Z,867.79
2018-11-23T05:44:31.460Z,867.79
2018-11-23T05:46:24.019Z,867.81
2018-11-23T05:47:24.111Z,867.76
2018-11-23T05:49:16.126Z,867.81
2018-11-23T05:50:16.114Z,867.80
2018-11-23T05:52:08.655Z,867.75
2018-11-23T05:53:08.811Z,867.74
2018-11-23T05:55:00.939Z,867.72
2018-11-23T05:56:01.163Z,867.74
2018-11-23T05:57:53.456Z,867.70
2018-11-23T05:58:53.142Z,867.75
2018-11-23T06:00:46.454Z,867.76
2018-11-23T06:01:45.477Z,867.78
2018-11-23T06:03:38.457Z,867.80
2018-11-23T06:04:38.189Z,867.80
2018-11-23T06:06:30.191Z,867.87
2018-11-23T06:07:30.509Z,867.86
2018-11-23T06:09:22.818Z,867.83
2018-11-23T06:10:22.495Z,867.82
2018-11-23T06:12:14.828Z,867.83
2018-11-23T06:13:14.861Z,867.85
2018-11-23T06:15:08.760Z,867.78
2018-11-23T06:16:08.202Z,867.77
2018-11-23T06:18:01.547Z,867.74
2018-11-23T06:19:01.537Z,867.71
2018-11-23T06:20:55.100Z,867.64
2018-11-23T06:21:55.181Z,867.58
2018-11-23T06:23:49.295Z,867.49
2018-11-23T06:24:49.300Z,867.48
2018-11-23T06:26:42.172Z,867.44
2018-11-23T06:27:42.160Z,867.41
2018-11-23T06:29:35.224Z,867.36
2018-11-23T06:30:35.199Z,867.39
2018-11-23T06:32:28.761Z,867.35
2018-11-23T06:33:28.545Z,867.35
2018-11-23T06:35:21.896Z,867.33
2018-11-23T06:36:21.903Z,867.29
2018-11-23T06:38:15.466Z,867.27
2018-11-23T06:39:15.224Z,867.33
2018-11-23T06:41:10.494Z,867.30
2018-11-23T06:42:08.584Z,867.34
2018-11-23T06:44:03.079Z,867.35
2018-11-23T06:45:01.905Z,867.36
2018-11-23T06:46:55.287Z,867.30
2018-11-23T06:47:55.236Z,867.31
2018-11-23T06:49:48.835Z,867.27
2018-11-23T06:50:48.596Z,867.33
2018-11-23T06:52:41.932Z,867.31
2018-11-23T06:53:41.938Z,867.24
2018-11-23T06:55:34.522Z,867.28
2018-11-23T06:56:34.282Z,867.30
2018-11-23T06:58:27.624Z,867.32
2018-11-23T06:59:27.616Z,867.33
2018-11-23T07:01:21.217Z,867.26
2018-11-23T07:02:21.293Z,867.31
2018-11-23T07:04:14.304Z,867.29
2018-11-23T07:05:14.341Z,867.28
2018-11-23T07:07:07.968Z,867.30
2018-11-23T07:08:07.648Z,867.29
2018-11-23T07:10:01.952Z,867.27
2018-11-23T07:11:01.017Z,867.29
2018-11-23T07:12:54.649Z,867.18
2018-11-23T07:13:54.367Z,867.17
2018-11-23T07:15:47.811Z,867.19
2018-11-23T07:16:48.015Z,867.22
2018-11-23T07:18:41.636Z,867.24
2018-11-23T07:19:41.067Z,867.24
2018-11-23T07:21:34.404Z,867.21
2018-11-23T07:22:34.376Z,867.13
2018-11-23T07:24:28.063Z,867.14
2018-11-23T07:25:27.716Z,867.16
2018-11-23T07:27:21.076Z,867.14
2018-11-23T07:28:21.069Z,867.17
2018-11-23T07:30:15.037Z,867.20
2018-11-23T07:31:14.402Z,867.14
2018-11-23T07:33:07.799Z,867.21
2018-11-23T07:34:07.754Z,867.17
2018-11-23T07:36:01.966Z,867.14
2018-11-23T07:37:01.089Z,867.13
2018-11-23T07:38:54.455Z,867.11
2018-11-23T07:39:54.449Z,867.13
2018-11-23T07:41:48.062Z,867.11
2018-11-23T07:42:47.789Z,867.14
2018-11-23T07:44:41.478Z,867.19
2018-11-23T07:45:41.185Z,867.20
2018-11-23T07:47:34.784Z,867.22
2018-11-23T07:48:34.478Z,867.23
2018-11-23T07:50:27.883Z,867.27
2018-11-23T07:51:27.836Z,867.25
2018-11-23T07:53:21.399Z,867.26
2018-11-23T07:54:21.203Z,867.34
2018-11-23T07:56:14.566Z,867.40
2018-11-23T07:57:14.554Z,867.40
2018-11-23T07:59:08.142Z,867.42
2018-11-23T08:00:08.253Z,867.47
2018-11-23T08:02:02.223Z,867.46
2018-11-23T08:03:01.289Z,867.48
2018-11-23T08:04:54.820Z,867.50
2018-11-23T08:05:54.921Z,867.48
2018-11-23T08:07:47.948Z,867.51
2018-11-23T08:08:47.972Z,867.46
2018-11-23T08:10:41.526Z,867.46
2018-11-23T08:11:41.282Z,867.50
2018-11-23T08:13:34.976Z,867.50
2018-11-23T08:14:34.641Z,867.47
2018-11-23T08:16:27.269Z,867.50
2018-11-23T08:17:27.000Z,867.47
2018-11-23T08:19:19.722Z,867.46
2018-11-23T08:20:19.420Z,867.43
2018-11-23T08:22:12.342Z,867.44
2018-11-23T08:23:11.790Z,867.42
2018-11-23T08:25:05.513Z,867.42
2018-11-23T08:26:04.819Z,867.40
2018-11-23T08:27:57.725Z,867.39
2018-11-23T08:28:57.156Z,867.42
2018-11-23T08:30:49.880Z,867.45
2018-11-23T08:31:49.517Z,867.46
2018-11-23T08:33:43.723Z,867.45
2018-11-23T08:34:42.895Z,867.44
2018-11-23T08:36:35.600Z,867.43
2018-11-23T08:37:35.221Z,867.44
2018-11-23T08:39:27.784Z,867.39
2018-11-23T08:40:27.930Z,867.36
2018-11-23T08:42:20.506Z,867.38
2018-11-23T08:43:20.431Z,867.39
2018-11-23T08:45:12.977Z,867.42
2018-11-23T08:46:12.776Z,867.43
2018-11-23T08:48:04.985Z,867.41
2018-11-23T08:49:04.655Z,867.38
2018-11-23T08:50:57.650Z,867.40
2018-11-23T08:51:56.979Z,867.38
2018-11-23T08:53:51.259Z,867.36
2018-11-23T08:54:50.310Z,867.37
2018-11-23T08:56:44.200Z,867.41
2018-11-23T08:57:43.673Z,867.34
2018-11-23T08:59:37.104Z,867.37
2018-11-23T09:00:37.020Z,867.39
2018-11-23T09:02:31.782Z,867.33
2018-11-23T09:03:30.701Z,867.29
2018-11-23T09:05:23.696Z,867.29
2018-11-23T09:06:23.679Z,867.32
2018-11-23T09:08:17.282Z,867.28
2018-11-23T09:09:17.038Z,867.27
2018-11-23T09:11:10.756Z,867.35
2018-11-23T09:12:10.407Z,867.33
2018-11-23T09:14:03.956Z,867.34
2018-11-23T09:15:03.763Z,867.32
2018-11-23T09:16:57.123Z,867.27
2018-11-23T09:17:57.405Z,867.27
2018-11-23T09:21:23.178Z,867.29
2018-11-23T09:22:23.546Z,867.26
2018-11-23T09:24:16.195Z,867.25
2018-11-23T09:25:15.836Z,867.26
2018-11-23T09:27:09.995Z,867.26
2018-11-23T09:28:09.228Z,867.24
2018-11-23T09:30:02.540Z,867.30
2018-11-23T09:31:02.546Z,867.30
2018-11-23T09:32:56.144Z,867.31
2018-11-23T09:33:55.931Z,867.30
2018-11-23T09:35:49.630Z,867.32
2018-11-23T09:36:49.272Z,867.27
2018-11-23T09:38:43.685Z,867.29
2018-11-23T09:39:42.602Z,867.29
2018-11-23T09:41:35.979Z,867.30
2018-11-23T09:42:36.325Z,867.27
2018-11-23T09:44:29.892Z,867.24
2018-11-23T09:45:29.319Z,867.22
2018-11-23T09:47:22.159Z,867.25
2018-11-23T09:48:22.548Z,867.27
2018-11-23T09:50:15.743Z,867.30
2018-11-23T09:51:15.846Z,867.31
2018-11-23T09:55:41.138Z,867.38
2018-11-23T09:56:40.924Z,867.32
2018-11-23T09:58:35.218Z,867.36
2018-11-23T09:59:34.233Z,867.36
2018-11-23T10:01:27.849Z,867.31
2018-11-23T10:02:27.627Z,867.35
2018-11-23T10:04:20.977Z,867.38
2018-11-23T10:05:20.934Z,867.38
2018-11-23T10:07:15.484Z,867.38
2018-11-23T10:08:15.271Z,867.39
2018-11-23T10:10:08.650Z,867.37
2018-11-23T10:11:08.609Z,867.39
2018-11-23T10:13:02.222Z,867.31
2018-11-23T10:14:01.955Z,867.34
2018-11-23T10:15:55.360Z,867.32
2018-11-23T10:16:55.314Z,867.36
2018-11-23T10:18:48.913Z,867.33
2018-11-23T10:19:48.686Z,867.33
2018-11-23T10:21:42.023Z,867.43
2018-11-23T10:22:42.026Z,867.41
2018-11-23T10:24:35.954Z,867.49
2018-11-23T10:25:35.697Z,867.41
2018-11-23T10:27:29.057Z,867.46
2018-11-23T10:28:28.712Z,867.52
2018-11-23T10:30:22.651Z,867.48
2018-11-23T10:31:22.423Z,867.45
2018-11-23T10:33:16.033Z,867.47
2018-11-23T10:34:15.431Z,867.47
2018-11-23T10:36:08.991Z,867.44
2018-11-23T10:37:08.764Z,867.45
2018-11-23T10:39:02.120Z,867.47
2018-11-23T10:40:02.130Z,867.45
2018-11-23T10:41:55.675Z,867.54
2018-11-23T10:42:55.492Z,867.56
2018-11-23T10:44:49.779Z,867.55
2018-11-23T10:45:48.839Z,867.54
2018-11-23T10:47:42.357Z,867.52
2018-11-23T10:48:42.157Z,867.49
2018-11-23T10:50:35.669Z,867.48
2018-11-23T10:51:35.538Z,867.49
2018-11-23T10:53:29.101Z,867.48
2018-11-23T10:54:28.893Z,867.49
2018-11-23T10:56:22.222Z,867.50
2018-11-23T10:57:22.199Z,867.50
2018-11-23T10:59:15.894Z,867.46
2018-11-23T11:00:15.575Z,867.42
2018-11-23T11:02:08.933Z,867.43
2018-11-23T11:03:08.895Z,867.45
2018-11-23T11:05:03.096Z,867.43
2018-11-23T11:06:02.265Z,867.48
2018-11-23T11:07:55.633Z,867.55
2018-11-23T11:08:55.591Z,867.57
2018-11-23T11:10:49.199Z,867.60
2018-11-23T11:11:48.951Z,867.63
2018-11-23T11:13:42.273Z,867.61
2018-11-23T11:14:42.280Z,867.64
2018-11-23T11:16:36.801Z,867.69
2018-11-23T11:17:35.975Z,867.65
2018-11-23T11:19:29.000Z,867.66
2018-11-23T11:20:28.993Z,867.67
2018-11-23T11:22:22.560Z,867.70
2018-11-23T11:23:22.326Z,867.70
2018-11-23T11:25:15.651Z,867.66
2018-11-23T11:26:15.670Z,867.68
2018-11-23T11:28:09.219Z,867.72
2018-11-23T11:29:08.981Z,867.71
2018-11-23T11:31:02.373Z,867.74
2018-11-23T11:32:02.718Z,867.70
2018-11-23T11:33:55.896Z,867.73
2018-11-23T11:34:55.678Z,867.71
2018-11-23T11:36:49.659Z,867.72
2018-11-23T11:37:49.022Z,867.68
2018-11-23T11:39:42.636Z,867.72
2018-11-23T11:40:42.690Z,867.72
2018-11-23T11:42:36.106Z,867.77
2018-11-23T11:43:35.746Z,867.75
2018-11-23T11:45:33.334Z,867.72
2018-11-23T11:46:29.071Z,867.79
2018-11-23T11:48:22.770Z,867.77
2018-11-23T11:49:22.463Z,867.79
2018-11-23T11:51:20.014Z,867.73
2018-11-23T11:52:15.776Z,867.72
2018-11-23T11:54:09.765Z,867.70
2018-11-23T11:55:09.124Z,867.71
2018-11-23T11:57:03.301Z,867.73
2018-11-23T11:58:02.477Z,867.72
2018-11-23T11:59:56.196Z,867.70
2018-11-23T12:00:55.843Z,867.73
2018-11-23T12:02:49.441Z,867.73
2018-11-23T12:03:49.544Z,867.68
2018-11-23T12:05:42.558Z,867.67
2018-11-23T12:06:42.552Z,867.66
2018-11-23T12:08:40.332Z,867.71
2018-11-23T12:09:35.737Z,867.72
2018-11-23T12:11:28.765Z,867.76
2018-11-23T12:12:29.097Z,867.79
2018-11-23T12:14:21.898Z,867.84
2018-11-23T12:15:21.650Z,867.80
2018-11-23T12:17:14.970Z,867.83
2018-11-23T12:18:14.958Z,867.84
2018-11-23T12:20:11.972Z,867.81
2018-11-23T12:21:08.297Z,867.81
2018-11-23T12:23:01.994Z,867.81
2018-11-23T12:24:01.685Z,867.85
2018-11-23T12:25:56.032Z,867.83
2018-11-23T12:26:56.128Z,867.80
2018-11-23T12:28:49.135Z,867.78
2018-11-23T12:29:49.123Z,867.75
2018-11-23T12:31:42.694Z,867.75
2018-11-23T12:32:42.504Z,867.75
2018-11-23T12:34:35.814Z,867.75
2018-11-23T12:35:35.826Z,867.75
2018-11-23T12:37:29.412Z,867.72
2018-11-23T12:38:29.491Z,867.71
2018-11-23T12:40:22.527Z,867.70
2018-11-23T12:41:22.541Z,867.75
2018-11-23T12:43:16.172Z,867.72
2018-11-23T12:44:15.854Z,867.75
2018-11-23T12:46:09.211Z,867.81
2018-11-23T12:47:09.193Z,867.88
2018-11-23T12:49:06.598Z,867.86
2018-11-23T12:50:02.526Z,867.79
2018-11-23T12:51:55.902Z,867.76
2018-11-23T12:52:55.906Z,867.74
2018-11-23T12:54:53.233Z,867.81
2018-11-23T12:55:49.588Z,867.88
2018-11-23T12:57:42.156Z,867.85
2018-11-23T12:58:42.147Z,867.88
2018-11-23T13:00:35.700Z,867.90
2018-11-23T13:01:35.495Z,867.93
2018-11-23T13:03:28.961Z,867.93
2018-11-23T13:04:29.188Z,867.96
2018-11-23T13:06:22.382Z,867.96
2018-11-23T13:07:22.202Z,867.93
2018-11-23T13:09:15.572Z,867.90
2018-11-23T13:10:15.851Z,867.92
2018-11-23T13:12:09.097Z,867.96
2018-11-23T13:13:08.844Z,867.94
2018-11-23T13:15:02.252Z,867.87
2018-11-23T13:16:02.227Z,867.89
2018-11-23T13:17:55.774Z,867.90
2018-11-23T13:18:55.594Z,867.90
2018-11-23T13:20:48.905Z,867.90
2018-11-23T13:21:48.901Z,867.93
2018-11-23T13:23:42.508Z,867.99
2018-11-23T13:24:42.271Z,868.00
2018-11-23T13:26:35.658Z,868.04
2018-11-23T13:27:35.641Z,868.00
2018-11-23T13:29:29.185Z,867.98
2018-11-23T13:30:28.959Z,867.99
2018-11-23T13:32:22.650Z,868.05
2018-11-23T13:33:22.626Z,868.06
2018-11-23T13:35:15.883Z,868.11
2018-11-23T13:36:15.648Z,868.08
2018-11-23T13:38:08.993Z,868.02
2018-11-23T13:39:09.034Z,868.04
2018-11-23T13:41:02.581Z,868.05
2018-11-23T13:42:02.674Z,868.11
2018-11-23T13:43:55.694Z,868.06
2018-11-23T13:44:55.683Z,868.05
2018-11-23T13:46:49.581Z,868.02
2018-11-23T13:47:49.036Z,868.02
2018-11-23T13:49:42.412Z,868.06
2018-11-23T13:50:42.404Z,868.06
2018-11-23T13:52:36.076Z,868.05
2018-11-23T13:53:35.247Z,868.02
2018-11-23T13:55:28.626Z,868.04
2018-11-23T13:56:28.602Z,868.07
2018-11-23T13:58:22.171Z,868.11
2018-11-23T13:59:21.939Z,868.09
2018-11-23T14:01:15.651Z,868.09
2018-11-23T14:02:15.306Z,868.12
2018-11-23T14:04:09.171Z,868.17
2018-11-23T14:05:08.612Z,868.25
2018-11-23T14:07:01.992Z,868.20
2018-11-23T14:08:01.999Z,868.20
2018-11-23T14:09:55.428Z,868.14
2018-11-23T14:10:54.864Z,868.20
2018-11-23T14:12:48.178Z,868.19
2018-11-23T14:13:48.198Z,868.20
2018-11-23T14:15:41.744Z,868.20
2018-11-23T14:16:41.517Z,868.21
2018-11-23T14:18:34.914Z,868.20
2018-11-23T14:19:34.871Z,868.23
2018-11-23T14:21:28.468Z,868.18
2018-11-23T14:22:28.249Z,868.23
2018-11-23T14:24:21.917Z,868.23
2018-11-23T14:25:21.573Z,868.18
2018-11-23T14:27:16.234Z,868.14
2018-11-23T14:28:15.617Z,868.17
2018-11-23T14:30:09.313Z,868.17
2018-11-23T14:31:08.971Z,868.20
2018-11-23T14:33:02.570Z,868.20
2018-11-23T14:34:02.688Z,868.24
2018-11-23T14:35:56.638Z,868.26
2018-11-23T14:36:55.692Z,868.29
2018-11-23T14:38:49.267Z,868.25
2018-11-23T14:39:49.035Z,868.20
2018-11-23T14:41:42.402Z,868.31
2018-11-23T14:42:42.682Z,868.27
2018-11-23T14:44:35.948Z,868.28
2018-11-23T14:45:35.690Z,868.28
2018-11-23T14:47:29.057Z,868.30
2018-11-23T14:48:29.071Z,868.34
2018-11-23T14:50:23.247Z,868.29
2018-11-23T14:51:22.408Z,868.29
2018-11-23T14:53:16.068Z,868.24
2018-11-23T14:54:15.724Z,868.24
2018-11-23T14:56:09.670Z,868.36
2018-11-23T14:57:09.111Z,868.37
2018-11-23T14:59:02.440Z,868.47
2018-11-23T15:00:02.794Z,868.47
2018-11-23T15:01:55.988Z,868.54
2018-11-23T15:02:55.806Z,868.56
2018-11-23T15:04:49.130Z,868.53
2018-11-23T15:05:49.131Z,868.55
2018-11-23T15:07:43.028Z,868.56
2018-11-23T15:08:42.465Z,868.58
2018-11-23T15:10:35.817Z,868.55
2018-11-23T15:11:35.817Z,868.52
2018-11-23T15:13:29.420Z,868.62
2018-11-23T15:14:29.162Z,868.64
2018-11-23T15:16:22.535Z,868.69
2018-11-23T15:17:22.512Z,868.69
2018-11-23T15:19:16.058Z,868.65
2018-11-23T15:20:15.848Z,868.69
2018-11-23T15:22:09.225Z,868.73
2018-11-23T15:23:09.189Z,868.71
2018-11-23T15:25:02.788Z,868.67
2018-11-23T15:26:02.561Z,868.68
2018-11-23T15:27:55.927Z,868.72
2018-11-23T15:28:56.249Z,868.78
2018-11-23T15:30:49.465Z,868.81
2018-11-23T15:31:49.221Z,868.78
2018-11-23T15:33:42.611Z,868.76
2018-11-23T15:34:42.938Z,868.80
2018-11-23T15:36:36.229Z,868.77
2018-11-23T15:37:35.924Z,868.79
2018-11-23T15:39:29.268Z,868.77
2018-11-23T15:40:29.249Z,868.81
2018-11-23T15:42:22.808Z,868.79
2018-11-23T15:43:22.647Z,868.80
2018-11-23T15:45:15.986Z,868.73
2018-11-23T15:46:15.976Z,868.75
2018-11-23T15:48:09.492Z,868.75
2018-11-23T15:49:09.629Z,868.75
2018-11-23T15:51:02.667Z,868.80
2018-11-23T15:52:02.677Z,868.82
2018-11-23T15:53:56.221Z,868.84
2018-11-23T15:54:56.299Z,868.81
2018-11-23T15:56:49.667Z,868.80
2018-11-23T15:57:49.340Z,868.81
2018-11-23T15:59:43.258Z,868.76
2018-11-23T16:00:42.674Z,868.79
2018-11-23T16:02:36.695Z,868.79
2018-11-23T16:03:36.025Z,868.74
2018-11-23T16:05:29.988Z,868.77
2018-11-23T16:06:29.362Z,868.76
2018-11-23T16:08:23.078Z,868.77
2018-11-23T16:09:22.716Z,868.77
2018-11-23T16:11:16.305Z,868.82
2018-11-23T16:12:16.080Z,868.86
2018-11-23T16:14:09.410Z,868.84
2018-11-23T16:15:09.395Z,868.84
2018-11-23T16:17:02.993Z,868.80
2018-11-23T16:18:02.731Z,868.81
2018-11-23T16:19:56.422Z,868.86
2018-11-23T16:20:56.423Z,868.89
2018-11-23T16:22:49.692Z,868.93
2018-11-23T16:23:49.465Z,868.95
2018-11-23T16:25:42.820Z,868.95
2018-11-23T16:26:42.775Z,868.94
2018-11-23T16:28:36.649Z,868.96
2018-11-23T16:29:36.466Z,868.95
2018-11-23T16:31:29.464Z,869.02
2018-11-23T16:32:29.451Z,869.05
2018-11-23T16:34:23.046Z,869.15
2018-11-23T16:35:23.142Z,869.16
2018-11-23T16:37:16.166Z,869.19
2018-11-23T16:38:16.147Z,869.20
2018-11-23T16:40:10.366Z,869.17
2018-11-23T16:41:09.529Z,869.17
2018-11-23T16:43:02.876Z,869.24
2018-11-23T16:44:03.175Z,869.25
2018-11-23T16:45:56.418Z,869.37
2018-11-23T16:46:56.185Z,869.36
2018-11-23T16:48:49.574Z,869.40
2018-11-23T16:49:49.867Z,869.39
2018-11-23T16:51:43.082Z,869.42
2018-11-23T16:52:43.212Z,869.40
2018-11-23T16:54:36.228Z,869.34
2018-11-23T16:55:36.223Z,869.33
2018-11-23T16:57:29.798Z,869.29
2018-11-23T16:58:29.570Z,869.32
2018-11-23T17:00:23.507Z,869.28
2018-11-23T17:01:22.941Z,869.30
2018-11-23T17:03:17.049Z,869.27
2018-11-23T17:04:16.621Z,869.27
2018-11-23T17:06:09.986Z,869.34
2018-11-23T17:07:12.998Z,869.33
2018-11-23T17:09:03.504Z,869.43
2018-11-23T17:10:03.282Z,869.46
2018-11-23T17:11:56.311Z,869.54
2018-11-23T17:12:56.619Z,869.53
2018-11-23T17:14:50.308Z,869.57
2018-11-23T17:15:49.627Z,869.55
2018-11-23T17:17:43.338Z,869.51
2018-11-23T17:18:43.017Z,869.45
2018-11-23T17:20:36.565Z,869.37
2018-11-23T17:21:36.335Z,869.36
2018-11-23T17:23:29.717Z,869.33
2018-11-23T17:24:29.681Z,869.33
2018-11-23T17:26:24.195Z,869.36
2018-11-23T17:27:23.018Z,869.43
2018-11-23T17:29:23.027Z,869.53
2018-11-23T17:30:16.363Z,869.55
2018-11-23T17:32:09.951Z,869.58
2018-11-23T17:33:10.083Z,869.53
2018-11-23T17:35:03.093Z,869.52
2018-11-23T17:36:03.043Z,869.48
2018-11-23T17:37:56.664Z,869.45
2018-11-23T17:38:56.424Z,869.44
2018-11-23T17:40:50.380Z,869.39
2018-11-23T17:41:49.773Z,869.36
2018-11-23T17:43:43.313Z,869.32
2018-11-23T17:44:43.118Z,869.35
2018-11-23T17:46:36.456Z,869.37
2018-11-23T17:47:36.443Z,869.38
2018-11-23T17:49:30.573Z,869.37
2018-11-23T17:50:29.770Z,869.34
2018-11-23T17:52:23.136Z,869.43
2018-11-23T17:53:23.155Z,869.44
2018-11-23T17:55:16.684Z,869.41
2018-11-23T17:56:16.505Z,869.39
2018-11-23T17:58:10.424Z,869.41
2018-11-23T17:59:09.849Z,869.42
2018-11-23T18:01:03.398Z,869.44
2018-11-23T18:02:03.514Z,869.46
2018-11-23T18:03:56.547Z,869.45
2018-11-23T18:04:56.869Z,869.47
2018-11-23T18:06:50.116Z,869.43